Time;durP1;ratioP1;P1;durP2;ratioP2;P2;SDS_P1;SDS_P2;PMS_P1;PMS_P2;Temp;Humidity;BMP_temperature;BMP_pressure;BME280_temperature;BME280_humidity;BME280_pressure;Samples;Min_cycle;Max_cycle;Signal;HPM_P1;HPM_P2
2023/10/13 00:01:58;;;;;;;17.37;11.97;;;;;;;-145.18;100.00;46660.41;5019231;28;20064;-66
2023/10/13 00:04:27;;;;;;;16.30;11.53;;;;;;;-145.18;100.00;46660.41;5030647;28;20481;-66
2023/10/13 00:06:56;;;;;;;19.20;12.43;;;;;;;-145.18;100.00;46660.41;5030913;28;20029;-65
2023/10/13 00:09:25;;;;;;;18.87;11.27;;;;;;;-145.18;100.00;46660.41;5029834;28;20051;-66
2023/10/13 00:11:53;;;;;;;16.33;11.17;;;;;;;-145.18;100.00;46660.41;5030729;28;20053;-66
2023/10/13 00:14:21;;;;;;;20.13;12.20;;;;;;;-145.18;100.00;46660.41;5031040;28;20039;-66
2023/10/13 00:17:00;;;;;;;18.90;11.37;;;;;;;-145.18;100.00;46660.41;5030961;28;20395;-66
2023/10/13 00:19:28;;;;;;;19.97;11.07;;;;;;;-145.18;100.00;46658.44;5030629;28;20508;-66
2023/10/13 00:21:56;;;;;;;17.70;10.63;;;;;;;-145.18;100.00;46658.44;5031068;28;20029;-66
2023/10/13 00:24:23;;;;;;;21.23;11.10;;;;;;;-145.18;100.00;46656.50;5031245;28;20495;-66
2023/10/13 00:26:49;;;;;;;24.13;11.43;;;;;;;-145.18;100.00;46654.53;5028654;28;20502;-66
2023/10/13 00:29:17;;;;;;;20.57;10.50;;;;;;;-145.18;100.00;46656.50;5034112;28;20045;-66
2023/10/13 00:31:43;;;;;;;19.57;9.90;;;;;;;-145.18;100.00;46656.50;5033877;28;20041;-66
2023/10/13 00:34:28;;;;;;;22.30;10.83;;;;;;;-145.18;100.00;46654.53;5034554;28;20112;-66
2023/10/13 00:37:17;;;;;;;19.33;9.33;;;;;;;-145.18;100.00;46654.53;5034506;28;20429;-66
2023/10/13 00:39:46;;;;;;;20.53;10.17;;;;;;;-145.18;100.00;46654.53;5034521;28;20025;-66
2023/10/13 00:42:18;;;;;;;21.10;10.03;;;;;;;-145.18;100.00;46650.63;5033633;28;20037;-66
2023/10/13 00:44:49;;;;;;;20.87;10.10;;;;;;;-145.18;100.00;46654.53;5033912;28;20040;-66
2023/10/13 00:50:19;;;;;;;16.17;8.40;;;;;;;-145.18;100.00;46650.63;5012050;28;20030;-66
2023/10/13 00:52:51;;;;;;;16.57;8.57;;;;;;;-145.18;100.00;46611.56;5029060;28;20412;-66
2023/10/13 00:55:22;;;;;;;16.13;7.90;;;;;;;-145.18;100.00;46652.59;5034408;28;20037;-66
2023/10/13 00:57:52;;;;;;;18.00;8.07;;;;;;;-145.18;100.00;46650.63;5033200;28;20538;-66
2023/10/13 01:00:25;;;;;;;13.33;7.80;;;;;;;-145.18;100.00;46650.63;5033938;28;20453;-66
2023/10/13 01:02:56;;;;;;;12.60;7.30;;;;;;;-145.18;100.00;46648.69;5034197;28;20428;-67
2023/10/13 01:05:25;;;;;;;12.47;6.80;;;;;;;-145.18;100.00;46652.59;5034354;28;20041;-67
2023/10/13 01:07:54;;;;;;;14.20;8.37;;;;;;;-145.18;100.00;46654.53;5033740;28;20033;-66
2023/10/13 01:10:27;;;;;;;16.10;6.97;;;;;;;-145.18;100.00;46652.59;5033986;28;20442;-67
2023/10/13 01:12:56;;;;;;;15.03;6.97;;;;;;;-145.18;100.00;46648.69;5033571;28;20032;-67
2023/10/13 01:15:21;;;;;;;15.73;6.97;;;;;;;-145.18;100.00;46652.59;5034355;28;20443;-67
2023/10/13 01:17:47;;;;;;;17.73;7.57;;;;;;;-145.18;100.00;46652.59;5033629;28;20033;-67
2023/10/13 01:20:24;;;;;;;12.83;7.43;;;;;;;-145.18;100.00;46654.53;5033585;28;20110;-66
2023/10/13 01:22:56;;;;;;;11.50;7.57;;;;;;;-145.18;100.00;46652.59;5033581;28;20440;-66
2023/10/13 01:25:28;;;;;;;12.67;8.17;;;;;;;-145.18;100.00;46654.53;5033723;28;20080;-66
2023/10/13 01:27:55;;;;;;;16.30;8.23;;;;;;;-145.18;100.00;46654.53;5033310;28;20041;-66
2023/10/13 01:30:24;;;;;;;15.97;7.53;;;;;;;-145.18;100.00;46652.59;5033575;28;20018;-67
2023/10/13 01:32:54;;;;;;;14.73;6.73;;;;;;;-145.18;100.00;46652.59;5031920;28;20121;-67
2023/10/13 01:35:24;;;;;;;15.27;6.50;;;;;;;-145.18;100.00;46652.59;5033219;28;20018;-66
2023/10/13 01:37:50;;;;;;;15.67;7.50;;;;;;;-145.18;100.00;46656.50;5033213;28;20040;-65
2023/10/13 01:40:18;;;;;;;17.13;7.90;;;;;;;-145.18;100.00;46650.63;5032802;28;20037;-66
2023/10/13 01:42:45;;;;;;;14.73;7.73;;;;;;;-145.18;100.00;46650.63;5032830;28;20037;-65
2023/10/13 01:45:14;;;;;;;12.00;7.10;;;;;;;-145.18;100.00;46654.53;5033948;28;20084;-65
2023/10/13 01:47:39;;;;;;;13.27;6.67;;;;;;;-145.18;100.00;46650.63;5032967;28;20030;-65
2023/10/13 01:50:29;;;;;;;19.23;7.50;;;;;;;-145.18;100.00;46654.53;5033361;28;20029;-65
2023/10/13 01:52:52;;;;;;;14.90;7.30;;;;;;;-145.18;100.00;46640.88;5031557;28;20042;-65
2023/10/13 01:55:19;;;;;;;12.50;6.50;;;;;;;-145.18;100.00;46648.69;5031794;28;20044;-65
2023/10/13 01:57:47;;;;;;;12.63;7.43;;;;;;;-145.18;100.00;46652.59;5033074;28;20056;-65
2023/10/13 02:00:19;;;;;;;14.07;6.60;;;;;;;-145.18;100.00;46640.88;5029262;28;20075;-65
2023/10/13 02:02:49;;;;;;;13.53;6.83;;;;;;;-145.18;100.00;46640.88;5033430;28;20030;-64
2023/10/13 02:05:17;;;;;;;12.77;6.90;;;;;;;-145.18;100.00;46654.53;5031912;28;20121;-65
2023/10/13 02:07:45;;;;;;;10.70;6.90;;;;;;;-145.18;100.00;46650.63;5031492;28;20040;-65
2023/10/13 02:10:12;;;;;;;12.60;6.53;;;;;;;-145.18;100.00;46656.50;5015081;28;20486;-65
2023/10/13 02:12:43;;;;;;;14.03;7.07;;;;;;;-145.18;100.00;46642.81;5033044;28;20049;-65
2023/10/13 02:15:23;;;;;;;10.27;6.60;;;;;;;-145.18;100.00;46640.88;5032242;28;20493;-65
2023/10/13 02:17:57;;;;;;;10.40;5.73;;;;;;;-145.18;100.00;46650.63;5026968;28;20038;-65
2023/10/13 02:20:25;;;;;;;13.83;6.53;;;;;;;-145.18;100.00;46650.63;5032497;28;20101;-65
2023/10/13 02:22:50;;;;;;;10.43;6.10;;;;;;;-145.18;100.00;46650.63;5032161;28;20116;-65
2023/10/13 02:25:17;;;;;;;12.70;6.57;;;;;;;-145.18;100.00;46648.69;5032916;28;20104;-65
2023/10/13 02:27:43;;;;;;;12.60;5.60;;;;;;;-145.18;100.00;46656.50;5030506;28;20054;-65
2023/10/13 02:30:14;;;;;;;10.13;5.63;;;;;;;-145.18;100.00;46640.88;5032509;28;20045;-65
2023/10/13 02:32:43;;;;;;;10.83;5.33;;;;;;;-145.18;100.00;46650.63;5031098;28;20104;-65
2023/10/13 02:35:15;;;;;;;15.63;5.63;;;;;;;-145.18;100.00;46650.63;5032545;28;20033;-64
2023/10/13 02:37:43;;;;;;;10.03;5.87;;;;;;;-145.18;100.00;46640.88;5032197;28;20029;-65
2023/10/13 02:40:11;;;;;;;9.30;5.60;;;;;;;-145.18;100.00;46654.53;5032319;28;20036;-65
2023/10/13 02:42:36;;;;;;;10.53;5.43;;;;;;;-145.18;100.00;46652.59;5032212;28;20021;-65
2023/10/13 02:45:03;;;;;;;12.57;5.30;;;;;;;-145.18;100.00;46650.63;5031957;28;20071;-65
2023/10/13 02:47:31;;;;;;;15.30;6.07;;;;;;;-145.18;100.00;46652.59;5032060;28;20025;-65
2023/10/13 02:50:00;;;;;;;15.47;6.77;;;;;;;-145.18;100.00;46652.59;5030022;28;20041;-65
2023/10/13 02:52:26;;;;;;;9.50;5.83;;;;;;;-145.18;100.00;46654.53;5031299;28;20033;-64
2023/10/13 02:54:52;;;;;;;14.80;6.07;;;;;;;-145.18;100.00;46654.53;5031026;28;20032;-64
2023/10/13 02:57:17;;;;;;;15.63;5.53;;;;;;;-145.18;100.00;46656.50;5032244;28;20021;-65
2023/10/13 02:59:47;;;;;;;13.37;6.37;;;;;;;-145.18;100.00;46656.50;5031663;28;20485;-64
2023/10/13 03:02:28;;;;;;;15.33;6.00;;;;;;;-145.18;100.00;46650.63;5031153;28;20107;-64
2023/10/13 03:05:09;;;;;;;15.47;6.30;;;;;;;-145.18;100.00;46652.59;5031991;28;20104;-64
2023/10/13 03:07:36;;;;;;;13.10;6.73;;;;;;;-145.18;100.00;46652.59;5028737;28;20060;-64
2023/10/13 03:10:09;;;;;;;14.93;6.80;;;;;;;-145.18;100.00;46650.63;5031873;28;20033;-64
2023/10/13 03:12:35;;;;;;;16.77;6.17;;;;;;;-145.18;100.00;46652.59;5031392;28;20037;-64
2023/10/13 03:15:22;;;;;;;11.77;6.13;;;;;;;-145.18;100.00;46652.59;5031814;28;20103;-64
2023/10/13 03:17:48;;;;;;;17.50;5.80;;;;;;;-145.18;100.00;46640.88;5031291;28;20120;-64
2023/10/13 03:20:16;;;;;;;13.13;6.03;;;;;;;-145.18;100.00;46638.91;5030122;28;20113;-64
2023/10/13 03:22:44;;;;;;;19.93;6.83;;;;;;;-145.18;100.00;46640.88;5062645;28;20030;-64
2023/10/13 03:25:29;;;;;;;17.40;6.90;;;;;;;-145.18;100.00;46640.88;5031887;28;20029;-64
2023/10/13 03:30:34;;;;;;;14.40;6.93;;;;;;;-145.18;100.00;46638.91;5024713;28;20125;-64
2023/10/13 03:33:00;;;;;;;;;;;;;;;-145.18;100.00;46640.88;5022520;28;20033;-64
2023/10/13 03:35:37;;;;;;;13.40;7.43;;;;;;;-145.18;100.00;46640.88;5033697;28;19924;-64
2023/10/13 03:38:03;;;;;;;13.37;7.03;;;;;;;-145.18;100.00;46636.94;5030966;28;20390;-64
2023/10/13 03:43:04;;;;;;;14.10;7.17;;;;;;;-145.18;100.00;46638.91;5031350;28;20029;-64
2023/10/13 03:45:39;;;;;;;14.45;7.07;;;;;;;-145.18;100.00;46640.88;5030755;28;20029;-64
2023/10/13 03:48:09;;;;;;;10.63;6.40;;;;;;;-145.18;100.00;46638.91;5036661;28;20481;-64
2023/10/13 03:50:57;;;;;;;14.30;7.10;;;;;;;-145.18;100.00;46638.91;5025966;28;20049;-65
2023/10/13 03:53:25;;;;;;;12.53;7.23;;;;;;;-145.18;100.00;46638.91;5031056;28;20033;-64
2023/10/13 03:56:07;;;;;;;13.83;7.90;;;;;;;-145.18;100.00;46635.00;5030775;28;20775;-64
2023/10/13 03:58:42;;;;;;;14.40;7.40;;;;;;;-145.18;100.00;46636.94;5029830;28;20026;-64
2023/10/13 04:01:14;;;;;;;12.17;7.17;;;;;;;-145.18;100.00;46636.94;5060333;28;20029;-64
2023/10/13 04:03:56;;;;;;;21.17;9.30;;;;;;;-145.18;100.00;46635.00;5033375;28;20040;-64
2023/10/13 04:06:51;;;;;;;13.07;8.60;;;;;;;-145.18;100.00;46635.00;5035028;28;20040;-63
2023/10/13 04:17:27;;;;;;;24.57;12.03;;;;;;;-145.18;100.00;46593.97;5030458;28;20039;-64
2023/10/13 04:36:16;;;;;;;26.40;15.73;;;;;;;-145.18;100.00;46590.06;5030769;28;20160;-64
2023/10/13 04:41:36;;;;;;;28.77;15.87;;;;;;;-145.18;100.00;46586.16;5027792;28;20063;-65
2023/10/13 04:44:23;;;;;;;27.77;16.53;;;;;;;-145.18;100.00;46588.13;5029907;28;20060;-65
2023/10/13 04:49:35;;;;;;;27.50;16.83;;;;;;;-145.18;100.00;46586.16;5033306;28;20033;-64
2023/10/13 04:54:44;;;;;;;23.47;14.23;;;;;;;-145.18;100.00;46584.22;5034818;28;20034;-64
2023/10/13 05:02:55;;;;;;;17.70;13.00;;;;;;;-145.18;100.00;46586.16;5022170;28;20040;-64
2023/10/13 06:29:49;;;;;;;14.40;10.03;;;;;;;-145.18;100.00;46640.88;5035541;28;20036;-64
2023/10/13 06:32:16;;;;;;;16.53;10.23;;;;;;;-145.18;100.00;46635.00;5032443;28;20061;-64
2023/10/13 06:34:47;;;;;;;17.67;10.80;;;;;;;-145.18;100.00;46631.09;5032387;28;20543;-64
2023/10/13 06:37:24;;;;;;;19.97;10.77;;;;;;;-145.18;100.00;46640.88;5032797;28;20055;-64
2023/10/13 06:39:50;;;;;;;18.40;11.17;;;;;;;-145.18;100.00;46636.94;5032152;28;20032;-64
2023/10/13 06:42:16;;;;;;;20.63;11.50;;;;;;;-145.18;100.00;46633.06;5032558;28;20033;-65
2023/10/13 06:44:45;;;;;;;21.47;10.33;;;;;;;-145.18;100.00;46635.00;5030213;28;20052;-64
2023/10/13 06:47:11;;;;;;;22.70;10.50;;;;;;;-145.18;100.00;46631.09;5031994;28;20461;-64
2023/10/13 06:49:39;;;;;;;16.63;10.10;;;;;;;-145.18;100.00;46636.94;5032297;28;20067;-64
2023/10/13 06:52:07;;;;;;;17.30;9.97;;;;;;;-145.18;100.00;46638.91;5032043;28;20069;-64
2023/10/13 06:54:36;;;;;;;16.37;9.23;;;;;;;-145.18;100.00;46636.94;5032319;28;20031;-64
2023/10/13 06:57:03;;;;;;;24.37;9.07;;;;;;;-145.18;100.00;46638.91;5031631;28;20040;-64
2023/10/13 06:59:32;;;;;;;14.57;9.20;;;;;;;-145.18;100.00;46640.88;5063965;28;20060;-64
2023/10/13 07:02:04;;;;;;;18.13;9.20;;;;;;;-145.18;100.00;46640.88;5031509;28;20037;-64
2023/10/13 07:04:29;;;;;;;20.17;9.07;;;;;;;-145.18;100.00;46650.63;5031865;28;20543;-64
2023/10/13 07:06:55;;;;;;;25.10;9.00;;;;;;;-145.18;100.00;46638.91;5031706;28;20045;-64
2023/10/13 07:12:06;;;;;;;16.37;8.37;;;;;;;-145.18;100.00;46652.59;5032194;28;20036;-64
2023/10/13 07:14:36;;;;;;;17.20;7.83;;;;;;;-145.18;100.00;46650.63;5031406;28;20045;-65
2023/10/13 07:17:07;;;;;;;23.07;8.30;;;;;;;-145.18;100.00;46654.53;5032131;28;20083;-64
2023/10/13 07:19:33;;;;;;;16.00;7.80;;;;;;;-145.18;100.00;46652.59;5030990;28;20065;-64
2023/10/13 07:22:19;;;;;;;15.97;7.57;;;;;;;-145.18;100.00;46652.59;5031987;28;20103;-65
2023/10/13 07:24:52;;;;;;;22.08;8.48;;;;;;;-145.18;100.00;46656.50;5031132;28;20052;-66
2023/10/13 07:27:24;;;;;;;21.77;8.23;;;;;;;-145.18;100.00;46656.50;5031290;28;20053;-66
2023/10/13 07:29:55;;;;;;;19.00;8.43;;;;;;;-145.18;100.00;46656.50;5031074;28;20029;-66
2023/10/13 07:32:25;;;;;;;18.60;8.20;;;;;;;-145.18;100.00;46652.59;5031444;28;20095;-66
2023/10/13 07:34:55;;;;;;;22.93;8.83;;;;;;;-145.18;100.00;46619.38;5026619;28;20112;-66
2023/10/13 07:37:28;;;;;;;20.33;7.73;;;;;;;-145.18;100.00;46656.50;5025370;28;20437;-66
2023/10/13 07:39:57;;;;;;;19.10;6.97;;;;;;;-145.18;100.00;46621.31;5031291;28;20040;-67
2023/10/13 07:42:26;;;;;;;19.73;8.37;;;;;;;-145.18;100.00;46621.31;5031600;28;20033;-66
2023/10/13 07:44:55;;;;;;;18.53;7.90;;;;;;;-145.18;100.00;46658.44;5031310;28;20025;-67
2023/10/13 07:47:24;;;;;;;19.37;7.83;;;;;;;-145.18;100.00;46658.44;5030602;28;20033;-67
2023/10/13 07:49:50;;;;;;;18.70;7.00;;;;;;;-145.18;100.00;46621.31;5031451;28;20045;-66
2023/10/13 07:54:49;;;;;;;17.40;6.60;;;;;;;-145.18;100.00;46619.38;5029947;28;20120;-66
2023/10/13 07:57:15;;;;;;;17.50;6.67;;;;;;;-145.18;100.00;46623.28;5031168;28;20108;-67
2023/10/13 07:59:48;;;;;;;19.37;6.87;;;;;;;-145.18;100.00;46627.19;5013618;28;20097;-66
2023/10/13 08:02:15;;;;;;;16.97;6.87;;;;;;;-145.18;100.00;46629.13;5029881;28;20037;-67
2023/10/13 08:04:40;;;;;;;22.63;7.07;;;;;;;-145.18;100.00;46629.13;5030330;28;20037;-67
2023/10/13 08:07:13;;;;;;;15.07;6.50;;;;;;;-145.18;100.00;46627.19;5031225;28;20113;-67
2023/10/13 08:09:51;;;;;;;15.90;6.33;;;;;;;-145.18;100.00;46629.13;5030955;28;20032;-67
2023/10/13 08:12:21;;;;;;;14.97;6.00;;;;;;;-145.18;100.00;46635.00;5030742;28;20490;-66
2023/10/13 08:14:47;;;;;;;13.27;5.83;;;;;;;-145.18;100.00;46635.00;5030838;28;20033;-67
2023/10/13 08:17:13;;;;;;;14.30;5.80;;;;;;;-145.18;100.00;46631.09;5029742;28;20029;-66
2023/10/13 08:27:34;;;;;;;17.47;6.23;;;;;;;-145.18;100.00;46640.88;5030794;28;20513;-67
2023/10/13 08:32:58;;;;;;;13.07;5.37;;;;;;;-145.18;100.00;46638.91;5027211;28;20103;-67
2023/10/13 08:35:33;;;;;;;13.00;6.40;;;;;;;-145.18;100.00;46644.78;5030187;28;20037;-67
2023/10/13 08:37:59;;;;;;;;;;;;;;;-145.18;100.00;46644.78;5031054;28;20537;-66
2023/10/13 08:43:12;;;;;;;17.58;6.45;;;;;;;-145.18;100.00;46652.59;5029954;28;20072;-67
2023/10/13 08:50:48;;;;;;;11.77;5.93;;;;;;;-145.18;100.00;46658.44;5031082;28;20068;-64
2023/10/13 08:53:28;;;;;;;;;;;;;;;-145.18;100.00;46660.41;5034671;28;20075;-64
2023/10/13 08:56:10;;;;;;;17.83;4.93;;;;;;;-145.18;100.00;46660.41;5034321;28;19909;-64
2023/10/13 09:12:25;;;;;;;14.25;5.35;;;;;;;-145.18;100.00;46679.94;5033795;28;20041;-65
2023/10/13 09:14:58;;;;;;;15.10;5.23;;;;;;;-145.18;100.00;46683.84;5033965;28;20030;-65
2023/10/13 09:17:39;;;;;;;18.20;5.60;;;;;;;-145.18;100.00;46681.88;5033880;28;20100;-65
2023/10/13 09:20:34;;;;;;;9.73;4.67;;;;;;;-145.18;100.00;46681.88;5039221;28;20044;-65
2023/10/13 09:23:45;;;;;;;17.63;6.17;;;;;;;-145.18;100.00;46681.88;5037106;28;20033;-65
2023/10/13 09:26:09;;;;;;;16.10;5.20;;;;;;;-145.18;100.00;46679.94;5026378;28;20371;-65
2023/10/13 09:28:31;;;;;;;17.90;5.72;;;;;;;-145.18;100.00;46681.88;5033129;28;20136;-64
2023/10/13 09:30:57;;;;;;;11.03;5.03;;;;;;;-145.18;100.00;46681.88;5032257;28;20052;-65
2023/10/13 09:33:32;;;;;;;18.43;5.37;;;;;;;-145.18;100.00;46683.84;5032189;28;20124;-65
2023/10/13 09:36:06;;;;;;;14.43;5.57;;;;;;;-145.18;100.00;46679.94;5031497;28;20423;-65
2023/10/13 09:38:33;;;;;;;15.13;5.70;;;;;;;-145.18;100.00;46681.88;5032446;28;20061;-65
2023/10/13 09:41:17;;;;;;;12.60;5.30;;;;;;;-145.18;100.00;46677.97;5031982;28;20033;-65
2023/10/13 09:43:43;;;;;;;17.90;5.70;;;;;;;-145.18;100.00;46679.94;5031027;28;20029;-65
2023/10/13 09:46:17;;;;;;;15.07;5.17;;;;;;;-145.18;100.00;46689.69;5027703;28;20043;-65
2023/10/13 09:48:46;;;;;;;15.57;5.43;;;;;;;-145.18;100.00;46687.75;5031672;28;20732;-65
2023/10/13 09:51:19;;;;;;;13.33;5.60;;;;;;;-145.18;100.00;46685.78;5032553;28;20075;-65
2023/10/13 09:54:11;;;;;;;22.93;6.23;;;;;;;-145.18;100.00;46681.88;5031442;28;20087;-65
2023/10/13 09:56:52;;;;;;;11.07;5.17;;;;;;;-145.18;100.00;46687.75;5011429;28;20041;-65
2023/10/13 09:59:24;;;;;;;14.17;5.90;;;;;;;-145.18;100.00;46687.75;5031929;28;20025;-64
2023/10/13 10:01:57;;;;;;;12.70;6.30;;;;;;;-145.18;100.00;46687.75;5030940;28;20034;-65
2023/10/13 10:04:23;;;;;;;14.43;5.93;;;;;;;-145.18;100.00;46687.75;5032439;28;20025;-65
2023/10/13 10:06:56;;;;;;;9.97;5.33;;;;;;;-145.18;100.00;46683.84;5031745;28;20033;-65
2023/10/13 10:09:37;;;;;;;15.07;6.23;;;;;;;-145.18;100.00;46687.75;5032243;28;20044;-65
2023/10/13 10:12:28;;;;;;;14.10;6.27;;;;;;;-145.18;100.00;46691.66;5032177;28;20051;-65
2023/10/13 10:15:06;;;;;;;24.67;6.30;;;;;;;-145.18;100.00;46679.94;5031244;28;20036;-65
2023/10/13 10:17:40;;;;;;;12.57;5.10;;;;;;;-145.18;100.00;46681.88;5031106;28;20021;-65
2023/10/13 10:20:14;;;;;;;17.63;5.77;;;;;;;-145.18;100.00;46687.75;5031585;28;20541;-65
2023/10/13 10:22:47;;;;;;;18.47;5.70;;;;;;;-145.18;100.00;46685.78;5031628;28;20044;-65
2023/10/13 10:25:25;;;;;;;21.10;6.33;;;;;;;-145.18;100.00;46689.69;5031642;28;20040;-65
2023/10/13 10:28:05;;;;;;;15.10;5.17;;;;;;;-145.18;100.00;46691.66;5030354;28;20042;-65
2023/10/13 10:30:35;;;;;;;24.93;5.97;;;;;;;-145.18;100.00;46689.69;5031219;28;20112;-65
2023/10/13 10:33:07;;;;;;;14.60;5.50;;;;;;;-145.18;100.00;46693.59;5031385;28;20026;-65
2023/10/13 10:35:33;;;;;;;25.67;6.07;;;;;;;-145.18;100.00;46691.66;5028753;28;20029;-64
2023/10/13 10:38:33;;;;;;;17.77;6.37;;;;;;;-145.18;100.00;46691.66;5029117;28;20053;-64
2023/10/13 10:41:01;;;;;;;13.10;6.17;;;;;;;-145.18;100.00;46699.47;5030108;28;20033;-64
2023/10/13 10:43:47;;;;;;;16.60;6.53;;;;;;;-145.18;100.00;46699.47;5031135;28;20025;-64
2023/10/13 10:46:26;;;;;;;14.32;5.18;;;;;;;-145.18;100.00;46695.56;5030789;28;20091;-64
2023/10/13 10:49:00;;;;;;;16.00;5.37;;;;;;;-145.18;100.00;46695.56;5031108;28;20397;-65
2023/10/13 10:51:33;;;;;;;20.70;6.93;;;;;;;-145.18;100.00;46695.56;5031058;28;20049;-65
2023/10/13 10:54:11;;;;;;;22.27;6.10;;;;;;;-145.18;100.00;46703.38;5026712;28;20428;-64
2023/10/13 10:56:37;;;;;;;9.87;5.17;;;;;;;-145.18;100.00;46693.59;5032006;28;20033;-64
2023/10/13 10:59:04;;;;;;;11.80;4.80;;;;;;;-145.18;100.00;46697.50;5031843;28;20032;-64
2023/10/13 11:01:38;;;;;;;12.97;5.67;;;;;;;-145.18;100.00;46693.59;5031839;28;20130;-64
2023/10/13 11:04:08;;;;;;;16.33;5.93;;;;;;;-145.18;100.00;46699.47;5033826;28;20043;-65
2023/10/13 11:06:42;;;;;;;15.37;6.53;;;;;;;-145.18;100.00;46701.41;5035310;28;20026;-65
2023/10/13 11:11:57;;;;;;;19.03;6.00;;;;;;;-145.18;100.00;46699.47;5031737;28;20104;-67
2023/10/13 11:14:25;;;;;;;14.00;5.93;;;;;;;-145.18;100.00;46697.50;5029098;28;20025;-66
2023/10/13 11:16:55;;;;;;;14.23;5.40;;;;;;;-145.18;100.00;46701.41;5031046;28;20029;-66
2023/10/13 11:19:34;;;;;;;9.90;5.30;;;;;;;-145.18;100.00;46705.31;5030480;28;20030;-66
2023/10/13 11:25:11;;;;;;;13.57;4.90;;;;;;;-145.18;100.00;46713.13;5029911;28;20044;-66
2023/10/13 11:27:55;;;;;;;16.77;6.13;;;;;;;-145.18;100.00;46705.31;5029631;28;20069;-66
2023/10/13 11:33:07;;;;;;;13.17;6.27;;;;;;;-145.18;100.00;46672.13;5030293;28;20025;-67
2023/10/13 11:41:18;;;;;;;14.07;5.43;;;;;;;-145.18;100.00;46642.81;5030538;28;20132;-67
2023/10/13 11:46:19;;;;;;;18.93;6.20;;;;;;;-145.18;100.00;46648.69;5028471;28;20037;-66
2023/10/13 11:48:54;;;;;;;15.97;5.93;;;;;;;-145.18;100.00;46664.31;5031489;28;20516;-67
2023/10/13 11:51:32;;;;;;;13.95;6.13;;;;;;;-145.18;100.00;46672.13;5029872;28;20033;-67
2023/10/13 11:53:58;;;;;;;15.33;5.70;;;;;;;-145.18;100.00;46693.59;5029020;28;20041;-67
2023/10/13 11:56:24;;;;;;;16.27;6.10;;;;;;;-145.18;100.00;46689.69;5030571;28;20098;-67
2023/10/13 11:58:50;;;;;;;16.53;5.47;;;;;;;-145.18;100.00;46623.28;5030338;28;20037;-66
2023/10/13 12:11:42;;;;;;;22.83;6.10;;;;;;;-145.18;100.00;46584.22;5029995;28;20045;-67
2023/10/13 12:14:19;;;;;;;13.13;5.30;;;;;;;-145.18;100.00;46586.16;5052446;28;20036;-67
2023/10/13 12:16:51;;;;;;;13.83;5.03;;;;;;;-145.18;100.00;46588.13;5029853;28;20029;-67
2023/10/13 12:19:24;;;;;;;14.47;5.23;;;;;;;-145.18;100.00;46592.03;5030212;28;20029;-66
2023/10/13 12:21:54;;;;;;;17.13;5.20;;;;;;;-145.18;100.00;46592.03;5029522;28;20382;-66
2023/10/13 12:24:39;;;;;;;17.20;6.97;;;;;;;-145.18;100.00;46590.06;5031112;28;20136;-67
2023/10/13 12:27:18;;;;;;;16.70;6.85;;;;;;;-145.18;100.00;46590.06;5029878;28;20132;-67
2023/10/13 12:29:47;;;;;;;19.17;5.47;;;;;;;-145.18;100.00;46588.13;5032423;28;20045;-67
2023/10/13 12:32:20;;;;;;;13.47;5.90;;;;;;;-145.18;100.00;46597.88;5033731;28;20045;-67
2023/10/13 12:54:04;;;;;;;21.93;6.20;;;;;;;-145.18;100.00;46627.19;5030726;28;20036;-67
2023/10/13 12:56:30;;;;;;;19.73;5.73;;;;;;;-145.18;100.00;46629.13;5029890;28;20030;-67
2023/10/13 12:58:56;;;;;;;13.30;6.70;;;;;;;-145.18;100.00;46629.13;5033240;28;20079;-67
2023/10/13 13:01:25;;;;;;;19.20;6.17;;;;;;;-145.18;100.00;46635.00;5032364;28;20078;-67
2023/10/13 13:03:55;;;;;;;20.50;5.93;;;;;;;-145.18;100.00;46638.91;5029330;28;20025;-67
2023/10/13 13:06:25;;;;;;;15.43;5.47;;;;;;;-145.18;100.00;46656.50;5032908;28;20028;-67
2023/10/13 13:08:54;;;;;;;16.80;5.80;;;;;;;-145.18;100.00;46693.59;5032919;28;20060;-67
2023/10/13 13:11:21;;;;;;;18.90;5.90;;;;;;;-145.18;100.00;46720.94;5032185;28;20567;-67
2023/10/13 13:13:47;;;;;;;19.17;6.27;;;;;;;-145.18;100.00;46722.91;5032953;28;20037;-67
2023/10/13 13:16:30;;;;;;;17.63;6.30;;;;;;;-145.18;100.00;46728.75;5032856;28;20025;-67
2023/10/13 13:18:55;;;;;;;12.23;6.00;;;;;;;-145.18;100.00;46720.94;5032596;28;20490;-67
2023/10/13 13:21:23;;;;;;;31.50;7.60;;;;;;;-145.18;100.00;46720.94;5031426;28;20045;-67
2023/10/13 13:23:49;;;;;;;14.53;5.97;;;;;;;-145.18;100.00;46722.91;5032779;28;20517;-67
2023/10/13 13:26:18;;;;;;;20.70;5.77;;;;;;;-145.18;100.00;46715.09;5032585;28;20025;-67
2023/10/13 13:28:45;;;;;;;9.47;4.90;;;;;;;-145.18;100.00;46715.09;5032397;28;20092;-67
2023/10/13 13:31:12;;;;;;;25.47;5.83;;;;;;;-145.18;100.00;46717.03;5032927;28;20441;-67
2023/10/13 13:33:43;;;;;;;20.73;5.87;;;;;;;-145.18;100.00;46713.13;5032181;28;20039;-67
2023/10/13 13:36:15;;;;;;;24.63;5.83;;;;;;;-145.18;100.00;46713.13;5031531;28;20120;-67
2023/10/13 13:38:48;;;;;;;13.50;6.23;;;;;;;-145.18;100.00;46711.19;5029978;28;20037;-66
2023/10/13 13:41:17;;;;;;;19.83;6.50;;;;;;;-145.18;100.00;46707.28;5032181;28;20033;-66
2023/10/13 13:46:18;;;;;;;16.90;5.63;;;;;;;-145.18;100.00;46713.13;5027250;28;20052;-66
2023/10/13 13:48:47;;;;;;;15.43;6.20;;;;;;;-145.18;100.00;46709.22;5029769;28;20095;-66
2023/10/13 13:51:19;;;;;;;18.10;6.80;;;;;;;-145.18;100.00;46707.28;5030892;28;20043;-66
2023/10/13 13:53:45;;;;;;;12.47;6.33;;;;;;;-145.18;100.00;46707.28;5031014;28;20029;-68
2023/10/13 13:56:16;;;;;;;12.70;5.03;;;;;;;-145.18;100.00;46705.31;5031181;28;20036;-67
2023/10/13 13:58:45;;;;;;;19.07;6.57;;;;;;;-145.18;100.00;46703.38;5032521;28;20032;-67
2023/10/13 14:01:21;;;;;;;22.23;5.87;;;;;;;-145.18;100.00;46701.41;5031733;28;20040;-67
2023/10/13 14:03:50;;;;;;;14.87;5.50;;;;;;;-145.18;100.00;46701.41;5031971;28;20383;-66
2023/10/13 14:06:29;;;;;;;15.93;5.67;;;;;;;-145.18;100.00;46697.50;5031998;28;20030;-66
2023/10/13 14:08:56;;;;;;;16.00;5.73;;;;;;;-145.18;100.00;46685.78;5031866;28;20035;-66
2023/10/13 14:14:04;;;;;;;15.40;6.00;;;;;;;-145.18;100.00;46689.69;5029936;28;20401;-66
2023/10/13 14:16:33;;;;;;;20.47;6.63;;;;;;;-145.18;100.00;46679.94;5032021;28;20506;-66
2023/10/13 14:19:01;;;;;;;16.00;6.20;;;;;;;-145.18;100.00;46693.59;5031667;28;20022;-66
2023/10/13 14:21:27;;;;;;;14.27;6.07;;;;;;;-145.18;100.00;46681.88;5031974;28;20077;-66
2023/10/13 14:23:53;;;;;;;16.07;4.80;;;;;;;-145.18;100.00;46679.94;5031952;28;20063;-66
2023/10/13 14:26:21;;;;;;;16.73;5.60;;;;;;;-145.18;100.00;46676.03;5031467;28;21301;-66
2023/10/13 14:29:00;;;;;;;21.73;6.43;;;;;;;-145.18;100.00;46676.03;5031140;28;20056;-66
2023/10/13 14:31:32;;;;;;;19.90;6.03;;;;;;;-145.18;100.00;46677.97;5031630;28;20048;-67
2023/10/13 14:33:58;;;;;;;19.57;5.90;;;;;;;-145.18;100.00;46672.13;5030140;28;20060;-66
2023/10/13 14:36:28;;;;;;;20.20;8.07;;;;;;;-145.18;100.00;46676.03;5031397;28;20061;-67
2023/10/13 14:38:54;;;;;;;16.90;6.17;;;;;;;-145.18;100.00;46674.06;5030246;28;20029;-66
2023/10/13 14:41:20;;;;;;;15.13;5.80;;;;;;;-145.18;100.00;46674.06;5031515;28;20489;-67
2023/10/13 14:43:48;;;;;;;13.10;6.10;;;;;;;-145.18;100.00;46668.22;5031788;28;20041;-68
2023/10/13 14:46:15;;;;;;;12.37;5.73;;;;;;;-145.18;100.00;46672.13;5025796;28;20049;-69
2023/10/13 14:48:44;;;;;;;16.00;6.13;;;;;;;-145.18;100.00;46672.13;5030688;28;20041;-68
2023/10/13 14:51:13;;;;;;;13.33;5.93;;;;;;;-145.18;100.00;46677.97;5029724;28;20037;-68
2023/10/13 14:53:44;;;;;;;17.33;6.37;;;;;;;-145.18;100.00;46679.94;5028933;28;20179;-68
2023/10/13 14:56:13;;;;;;;15.77;6.27;;;;;;;-145.18;100.00;46668.22;5031037;28;20044;-68
2023/10/13 14:58:42;;;;;;;24.03;6.80;;;;;;;-145.18;100.00;46672.13;5028272;28;20473;-69
2023/10/13 15:01:18;;;;;;;14.63;5.87;;;;;;;-145.18;100.00;46676.03;5031252;28;20025;-68